Edgewood, New York
Current Conditions -  °F | °C
As of 9:56 AM on Monday 22 Dec 2014 (Local Time) from KISP Reporting Station
Overcast Overcast  
Wind Chill: 35°   Ceiling: 2300
Heat Index: 41°   Visibility: 10mi
Dew Point: 37°   Wind: 9mph
Humidity: 86%   Direction: 60°ENE
Pressure: 30.31"   Gusts: NA
Location:  40.7837°N, 73.252°W
Report Text: KISP 221456Z 06008KT 10SM FEW009 BKN023 OVC040 05/03 A3031 RMK AO2 SLP263 T00500028 51005
Loading
Personal Weather Stations






























Interactive Weather Map New forecast layout! Learn more

10-Day Weather Forecast

Advertisements
Track Severe Weather on mobile